Time;durP1;ratioP1;P1;durP2;ratioP2;P2;SDS_P1;SDS_P2;PMS_P1;PMS_P2;Temp;Humidity;BMP_temperature;BMP_pressure;BME280_temperature;BME280_humidity;BME280_pressure;Samples;Min_cycle;Max_cycle;Signal;HPM_P1;HPM_P2
2024/04/22 00:00:29;;;;;;;6.00;2.50;;;;;;;2.60;66.17;101917.52;108688;1260;138691;-63
2024/04/22 00:03:16;;;;;;;4.50;2.20;;;;;;;2.58;66.28;101915.29;108789;1260;75804;-64
2024/04/22 00:05:52;;;;;;;5.10;2.50;;;;;;;2.55;66.18;101917.79;108674;1260;140906;-63
2024/04/22 00:08:18;;;;;;;7.00;2.40;;;;;;;2.52;66.40;101918.99;108702;1260;69229;-63
2024/04/22 00:10:45;;;;;;;4.70;2.40;;;;;;;2.49;66.29;101916.46;108798;1260;74891;-63
2024/04/22 00:13:11;;;;;;;4.20;2.50;;;;;;;2.43;66.19;101911.23;108634;1260;138098;-63
2024/04/22 00:15:38;;;;;;;5.00;2.20;;;;;;;2.37;66.32;101909.52;108754;1260;73954;-63
2024/04/22 00:18:05;;;;;;;5.50;2.70;;;;;;;2.29;66.08;101910.29;108670;1260;138601;-63
2024/04/22 00:20:31;;;;;;;5.70;2.20;;;;;;;2.19;66.15;101912.09;108787;1260;60042;-63
2024/04/22 00:22:58;;;;;;;6.80;2.30;;;;;;;2.14;66.36;101907.95;108806;1260;73887;-63
2024/04/22 00:25:24;;;;;;;4.20;2.00;;;;;;;2.10;66.52;101906.22;108710;1260;137810;-63
2024/04/22 00:27:51;;;;;;;3.70;2.40;;;;;;;2.05;66.59;101910.02;108692;1260;73742;-63
2024/04/22 00:30:18;;;;;;;5.70;2.70;;;;;;;2.00;66.41;101905.43;108649;1260;138738;-63
2024/04/22 00:32:45;;;;;;;6.50;2.50;;;;;;;1.93;66.50;101909.96;108778;1261;60071;-63
2024/04/22 00:35:11;;;;;;;5.70;2.20;;;;;;;1.85;66.62;101908.46;108800;1261;74628;-63
2024/04/22 00:37:38;;;;;;;2.40;1.70;;;;;;;1.80;66.53;101899.02;108629;1260;138514;-64
2024/04/22 00:40:05;;;;;;;3.40;2.00;;;;;;;1.74;66.58;101901.21;108761;1260;60096;-63
2024/04/22 00:42:31;;;;;;;4.20;2.30;;;;;;;1.69;66.49;101903.54;108665;1260;137996;-63
2024/04/22 00:44:58;;;;;;;2.60;1.90;;;;;;;1.63;66.66;101900.33;108794;1260;60014;-63
2024/04/22 00:47:25;;;;;;;3.80;2.00;;;;;;;1.59;66.60;101897.89;108762;1260;74721;-63
2024/04/22 00:49:52;;;;;;;3.30;2.00;;;;;;;1.57;66.53;101893.08;108777;1260;65285;-63
2024/04/22 00:52:18;;;;;;;6.90;2.40;;;;;;;1.59;66.59;101887.67;108734;1260;73008;-63
2024/04/22 00:54:45;;;;;;;7.50;2.70;;;;;;;1.60;66.56;101882.07;108660;1260;137958;-63
2024/04/22 00:57:12;;;;;;;4.50;2.10;;;;;;;1.61;66.47;101872.27;108805;1260;60368;-63
2024/04/22 00:59:38;;;;;;;3.30;2.50;;;;;;;1.64;66.34;101868.06;108578;1260;139357;-63
2024/04/22 01:02:05;;;;;;;3.70;2.00;;;;;;;1.67;66.45;101867.08;108783;1259;60091;-64
2024/04/22 01:04:33;;;;;;;4.20;2.00;;;;;;;1.70;66.22;101865.04;108703;1261;80129;-63
2024/04/22 01:06:59;;;;;;;4.30;2.10;;;;;;;1.72;66.16;101864.66;108488;1260;138441;-63
2024/04/22 01:09:26;;;;;;;4.00;2.30;;;;;;;1.71;65.95;101860.85;108776;1260;60101;-63
2024/04/22 01:11:52;;;;;;;3.70;2.40;;;;;;;1.74;65.88;101860.88;108707;1262;138443;-63
2024/04/22 01:14:19;;;;;;;4.30;2.30;;;;;;;1.79;65.93;101863.29;108650;1260;66386;-64
2024/04/22 01:16:55;;;;;;;2.90;1.90;;;;;;;1.82;65.76;101863.54;108811;1260;73724;-64
2024/04/22 01:19:22;;;;;;;4.10;1.90;;;;;;;1.85;65.65;101862.55;108650;1260;138211;-63
2024/04/22 01:21:53;;;;;;;4.20;2.10;;;;;;;1.87;65.48;101856.88;108781;1260;60090;-63
2024/04/22 01:24:19;;;;;;;3.60;2.10;;;;;;;1.89;65.43;101837.98;108690;1260;137855;-63
2024/04/22 01:26:46;;;;;;;3.20;1.90;;;;;;;1.93;65.47;101838.61;108717;1260;64378;-63
2024/04/22 01:29:12;;;;;;;4.30;2.40;;;;;;;1.97;65.34;101845.15;108772;1260;72744;-63
2024/04/22 01:31:39;;;;;;;4.70;2.10;;;;;;;1.97;65.11;101849.83;108721;1260;138138;-63
2024/04/22 01:34:06;;;;;;;5.60;2.90;;;;;;;1.94;65.19;101845.95;108798;1260;61163;-63
2024/04/22 01:36:34;;;;;;;4.50;2.50;;;;;;;1.90;65.00;101845.31;108688;1260;138071;-63
2024/04/22 01:39:01;;;;;;;3.70;2.00;;;;;;;1.88;65.01;101851.40;108750;1260;65903;-63
2024/04/22 01:41:27;;;;;;;3.50;2.10;;;;;;;1.88;65.06;101844.08;108621;1260;138146;-63
2024/04/22 01:43:54;;;;;;;3.40;2.20;;;;;;;1.89;65.29;101843.30;108771;1260;59797;-63
2024/04/22 01:46:20;;;;;;;3.70;2.40;;;;;;;1.91;65.41;101844.02;108790;1260;59754;-63
2024/04/22 01:48:47;;;;;;;3.60;2.10;;;;;;;1.92;65.41;101838.51;108607;1260;138367;-64
2024/04/22 01:51:13;;;;;;;3.60;2.30;;;;;;;1.89;65.46;101836.95;108778;1260;67267;-63
2024/04/22 01:53:40;;;;;;;3.60;2.70;;;;;;;1.86;65.55;101835.13;108679;1260;139084;-64
2024/04/22 01:56:06;;;;;;;5.10;2.50;;;;;;;1.85;65.77;101835.93;108790;1259;60214;-63
2024/04/22 01:58:33;;;;;;;3.90;2.30;;;;;;;1.87;65.85;101837.48;108824;1260;61185;-63
2024/04/22 02:01:07;;;;;;;3.30;2.40;;;;;;;1.87;65.84;101839.38;108689;1260;138226;-63
2024/04/22 02:03:34;;;;;;;4.30;2.50;;;;;;;1.87;65.96;101832.40;108793;1260;65580;-63
2024/04/22 02:06:00;;;;;;;3.80;2.40;;;;;;;1.86;66.10;101833.39;108655;1260;138185;-63
2024/04/22 02:08:27;;;;;;;3.70;2.30;;;;;;;1.85;66.41;101832.96;108774;1260;60105;-63
2024/04/22 02:10:53;;;;;;;4.70;2.50;;;;;;;1.86;66.83;101831.80;108835;1260;60506;-63
2024/04/22 02:13:20;;;;;;;4.70;2.40;;;;;;;1.86;67.21;101833.89;108696;1260;138096;-62
2024/04/22 02:15:47;;;;;;;5.30;2.60;;;;;;;1.80;67.27;101829.16;108787;1260;67344;-63
2024/04/22 02:18:13;;;;;;;7.00;2.80;;;;;;;1.74;67.45;101832.85;108659;1260;138684;-63
2024/04/22 02:20:40;;;;;;;6.10;2.60;;;;;;;1.72;67.80;101828.84;108785;1260;60052;-63
2024/04/22 02:23:06;;;;;;;4.00;3.00;;;;;;;1.72;67.90;101822.82;108791;1260;60867;-61
2024/04/22 02:25:33;;;;;;;3.80;3.40;;;;;;;1.72;68.09;101821.93;108703;1260;138782;-63
2024/04/22 02:27:59;;;;;;;5.20;3.20;;;;;;;1.73;68.13;101817.86;108791;1260;67647;-63
2024/04/22 02:30:26;;;;;;;6.20;2.90;;;;;;;1.76;68.35;101813.25;108431;1260;301664;-61
2024/04/22 02:32:52;;;;;;;3.50;2.50;;;;;;;1.80;68.59;101808.89;108768;1260;59978;-61
2024/04/22 02:35:19;;;;;;;4.10;2.70;;;;;;;1.82;68.37;101804.37;108801;1260;60532;-62
2024/04/22 02:37:45;;;;;;;5.50;2.90;;;;;;;1.83;68.50;101797.02;108731;1260;137887;-62
2024/04/22 02:40:12;;;;;;;6.20;3.20;;;;;;;1.84;68.55;101797.23;108805;1260;66829;-62
2024/04/22 02:42:39;;;;;;;4.80;2.80;;;;;;;1.84;68.68;101791.14;108713;1260;137864;-62
2024/04/22 02:45:05;;;;;;;7.80;3.40;;;;;;;1.83;68.86;101789.06;108785;1260;59777;-62
2024/04/22 02:47:32;;;;;;;4.80;3.00;;;;;;;1.85;68.94;101782.23;108680;1260;139022;-63
2024/04/22 02:49:58;;;;;;;5.20;3.00;;;;;;;1.87;69.12;101783.11;108859;1260;75581;-63
2024/04/22 02:52:25;;;;;;;6.30;3.30;;;;;;;1.87;69.13;101777.61;108763;1262;65734;-63
2024/04/22 02:54:52;;;;;;;4.80;3.10;;;;;;;1.89;69.31;101771.52;108657;1260;138428;-64
2024/04/22 02:57:19;;;;;;;3.80;2.70;;;;;;;1.92;69.62;101770.38;108768;1260;60029;-63
2024/04/22 02:59:46;;;;;;;4.90;3.20;;;;;;;1.94;69.38;101772.41;108709;1259;137920;-63
2024/04/22 03:02:12;;;;;;;5.70;3.60;;;;;;;1.93;69.77;101772.52;108792;1260;75649;-63
2024/04/22 03:04:39;;;;;;;6.10;3.30;;;;;;;1.88;69.90;101771.44;108855;1261;67111;-63
2024/04/22 03:07:07;;;;;;;7.60;4.30;;;;;;;1.80;70.58;101768.04;108514;1261;139720;-63
2024/04/22 03:09:39;;;;;;;5.20;3.70;;;;;;;1.74;70.71;101767.42;108775;1260;59804;-63
2024/04/22 03:12:06;;;;;;;5.40;3.80;;;;;;;1.73;71.25;101763.17;108696;1260;139802;-63
2024/04/22 03:14:33;;;;;;;5.30;3.40;;;;;;;1.74;71.33;101761.36;108787;1260;75732;-63
2024/04/22 03:16:59;;;;;;;4.60;3.30;;;;;;;1.77;71.46;101766.57;108846;1260;66065;-63
2024/04/22 03:19:26;;;;;;;5.70;3.60;;;;;;;1.78;71.43;101763.73;108649;1260;140107;-63
2024/04/22 03:21:52;;;;;;;5.40;2.80;;;;;;;1.80;71.50;101759.37;108771;1260;59778;-63
2024/04/22 03:24:19;;;;;;;4.70;3.50;;;;;;;1.82;71.54;101762.14;108656;1260;138743;-63
2024/04/22 03:26:45;;;;;;;4.20;3.10;;;;;;;1.86;71.53;101768.09;108805;1260;75203;-63
2024/04/22 03:29:12;;;;;;;3.90;3.30;;;;;;;1.87;71.84;101770.81;108806;1260;65771;-63
2024/04/22 03:31:39;;;;;;;4.60;3.80;;;;;;;1.88;71.77;101772.47;108708;1260;137995;-64
2024/04/22 03:34:05;;;;;;;7.40;4.00;;;;;;;1.90;71.82;101770.58;108773;1260;60220;-63
2024/04/22 03:36:32;;;;;;;6.00;3.70;;;;;;;1.91;71.96;101762.48;108668;1260;138613;-64
2024/04/22 03:38:58;;;;;;;5.40;3.60;;;;;;;1.91;72.03;101755.06;108804;1260;76566;-63
2024/04/22 03:41:27;;;;;;;8.20;3.90;;;;;;;1.94;72.07;101753.16;108817;1260;66354;-64
2024/04/22 03:43:54;;;;;;;7.50;3.80;;;;;;;1.98;72.19;101749.30;108806;1260;72837;-63
2024/04/22 03:51:51;;;;;;;5.50;3.00;;;;;;;2.10;72.36;101746.27;108700;1260;75711;-63
2024/04/22 03:54:19;;;;;;;7.70;3.90;;;;;;;2.13;72.40;101748.89;108675;1260;138184;-63
2024/04/22 03:56:45;;;;;;;5.70;3.50;;;;;;;2.13;72.60;101750.98;108777;1262;71083;-63
2024/04/22 03:59:12;;;;;;;6.00;3.80;;;;;;;2.13;72.67;101748.42;108796;1260;60071;-63
2024/04/22 04:01:38;;;;;;;5.40;3.60;;;;;;;2.17;72.60;101751.98;108667;1260;138629;-63
2024/04/22 04:04:05;;;;;;;4.90;3.80;;;;;;;2.23;72.76;101749.42;108769;1261;74601;-64
2024/04/22 04:06:31;;;;;;;6.10;3.50;;;;;;;2.28;72.76;101747.55;108677;1260;138786;-64
2024/04/22 04:08:58;;;;;;;6.40;3.70;;;;;;;2.32;72.65;101755.66;108789;1260;72142;-63
2024/04/22 04:11:32;;;;;;;4.40;3.40;;;;;;;2.37;72.83;101756.40;108769;1260;59947;-63
2024/04/22 04:13:59;;;;;;;4.80;3.70;;;;;;;2.43;72.83;101758.38;108835;1260;60046;-63
2024/04/22 04:16:26;;;;;;;5.10;3.80;;;;;;;2.48;72.62;101748.73;108751;1260;75905;-64
2024/04/22 04:18:53;;;;;;;7.10;3.80;;;;;;;2.55;72.59;101749.56;108599;1260;138587;-63
2024/04/22 04:21:19;;;;;;;5.20;3.70;;;;;;;2.63;72.69;101751.38;108765;1260;72879;-63
2024/04/22 04:23:46;;;;;;;6.00;3.80;;;;;;;2.73;72.57;101751.91;108690;1260;138677;-64
2024/04/22 04:26:12;;;;;;;4.40;3.40;;;;;;;2.78;72.49;101749.63;108727;1260;60157;-65
2024/04/22 04:28:39;;;;;;;6.10;4.00;;;;;;;2.80;72.42;101755.67;108794;1260;60561;-63
2024/04/22 04:31:05;;;;;;;5.40;3.60;;;;;;;2.78;72.08;101761.95;108665;1260;138040;-63
2024/04/22 04:33:32;;;;;;;6.40;4.10;;;;;;;2.73;72.22;101764.73;108760;1260;73807;-63
2024/04/22 04:36:03;;;;;;;7.50;4.30;;;;;;;2.66;72.19;101767.92;108589;1260;138921;-65
2024/04/22 04:38:33;;;;;;;7.30;4.20;;;;;;;2.66;72.58;101761.63;108792;1260;60205;-62
2024/04/22 04:41:00;;;;;;;5.60;4.10;;;;;;;2.71;72.87;101759.73;108756;1260;74984;-63
2024/04/22 04:43:27;;;;;;;5.20;4.10;;;;;;;2.81;73.24;101755.96;108538;1260;138874;-64
2024/04/22 04:45:53;;;;;;;5.50;3.90;;;;;;;2.94;73.27;101753.79;108753;1260;73777;-63
2024/04/22 04:48:20;;;;;;;6.80;3.80;;;;;;;3.04;73.14;101755.54;108675;1260;138366;-63
2024/04/22 04:50:47;;;;;;;5.90;4.20;;;;;;;3.14;73.39;101751.34;108822;1260;63848;-62
2024/04/22 04:53:14;;;;;;;6.30;4.00;;;;;;;3.23;73.17;101750.10;108778;1260;74791;-63
2024/04/22 04:55:41;;;;;;;5.20;3.90;;;;;;;3.27;73.09;101747.05;108652;1259;138237;-63
2024/04/22 04:58:07;;;;;;;8.20;4.40;;;;;;;3.30;73.07;101749.41;108776;1260;71936;-63
2024/04/22 05:00:34;;;;;;;5.90;4.60;;;;;;;3.30;72.90;101753.77;108652;1260;137982;-63
2024/04/22 05:03:01;;;;;;;7.20;4.00;;;;;;;3.25;72.90;101761.19;108765;1260;59965;-62
2024/04/22 05:05:28;;;;;;;7.40;5.30;;;;;;;3.21;72.73;101760.17;108799;1260;74854;-63
2024/04/22 05:07:55;;;;;;;8.00;5.20;;;;;;;3.11;72.84;101763.48;108690;1260;138842;-63
2024/04/22 05:10:22;;;;;;;10.60;5.70;;;;;;;3.04;72.78;101758.98;108766;1260;72284;-63
2024/04/22 05:12:49;;;;;;;7.60;5.50;;;;;;;3.02;73.26;101757.45;108686;1260;138997;-62
2024/04/22 05:15:16;;;;;;;8.00;4.50;;;;;;;3.04;73.17;101760.03;108822;1260;60770;-61
2024/04/22 05:17:42;;;;;;;8.40;5.20;;;;;;;3.04;73.13;101761.41;108584;1260;138945;-61
2024/04/22 05:20:09;;;;;;;9.70;4.60;;;;;;;3.00;73.30;101762.86;108798;1260;65486;-63
2024/04/22 05:22:36;;;;;;;7.50;5.60;;;;;;;2.99;73.31;101759.30;108698;1260;73881;-63
2024/04/22 05:25:03;;;;;;;6.50;5.00;;;;;;;3.04;73.55;101760.05;108673;1260;139077;-63
2024/04/22 05:27:30;;;;;;;7.10;5.00;;;;;;;3.09;73.59;101764.92;108824;1260;59914;-63
2024/04/22 05:29:57;;;;;;;7.60;5.30;;;;;;;3.13;73.53;101764.50;108688;1260;138915;-63
2024/04/22 05:32:24;;;;;;;10.90;5.00;;;;;;;3.18;73.70;101761.37;108838;1260;67072;-62
2024/04/22 05:37:35;;;;;;;6.70;4.90;;;;;;;3.12;73.42;101768.74;108647;1260;147728;-63
2024/04/22 05:40:02;;;;;;;6.90;5.20;;;;;;;3.06;73.37;101770.05;108752;1261;60513;-64
2024/04/22 05:42:28;;;;;;;5.90;4.50;;;;;;;3.06;73.36;101771.06;108702;1260;139480;-63
2024/04/22 05:44:55;;;;;;;6.70;4.50;;;;;;;3.07;73.52;101771.84;108785;1260;67247;-63
2024/04/22 05:47:22;;;;;;;6.60;4.70;;;;;;;3.09;73.56;101774.63;108808;1260;71231;-63
2024/04/22 05:49:49;;;;;;;9.10;4.50;;;;;;;3.12;73.42;101773.25;108672;1260;138946;-63
2024/04/22 05:52:16;;;;;;;6.50;3.80;;;;;;;3.17;73.47;101770.67;108794;1260;59916;-64
2024/04/22 05:54:42;;;;;;;5.60;3.80;;;;;;;3.24;73.39;101772.73;108646;1260;138300;-63
2024/04/22 05:57:09;;;;;;;6.40;4.10;;;;;;;3.27;73.21;101770.20;108751;1260;64800;-63
2024/04/22 05:59:35;;;;;;;7.10;4.70;;;;;;;3.33;73.16;101776.65;108675;1260;139326;-63
2024/04/22 06:02:02;;;;;;;7.20;4.80;;;;;;;3.33;72.81;101776.63;108722;1263;59951;-64
2024/04/22 06:04:31;;;;;;;6.00;4.10;;;;;;;3.31;72.64;101771.98;108816;1260;59889;-64
2024/04/22 06:06:58;;;;;;;6.70;4.10;;;;;;;3.31;72.68;101771.50;108583;1260;138921;-64
2024/04/22 06:09:24;;;;;;;8.10;4.40;;;;;;;3.33;72.48;101770.54;108778;1260;65697;-64
2024/04/22 06:11:51;;;;;;;7.50;3.90;;;;;;;3.37;72.50;101769.30;108671;1260;138812;-64
2024/04/22 06:14:17;;;;;;;6.50;3.70;;;;;;;3.43;72.34;101770.38;108834;1260;59779;-63
2024/04/22 06:16:45;;;;;;;7.60;4.30;;;;;;;3.42;72.08;101768.07;108806;1260;61098;-63
2024/04/22 06:19:12;;;;;;;7.40;4.00;;;;;;;3.44;71.90;101763.69;108691;1260;138303;-63
2024/04/22 06:21:39;;;;;;;7.00;4.10;;;;;;;3.51;71.83;101764.92;108828;1260;66783;-63
2024/04/22 06:24:06;;;;;;;6.60;3.90;;;;;;;3.59;71.69;101762.85;108627;1260;138776;-63
2024/04/22 06:26:33;;;;;;;6.90;4.10;;;;;;;3.69;71.47;101765.45;108818;1260;60018;-63
2024/04/22 06:28:59;;;;;;;7.00;4.20;;;;;;;3.84;71.34;101762.45;108754;1260;61047;-64
2024/04/22 06:31:26;;;;;;;5.20;3.50;;;;;;;3.95;71.01;101765.32;108723;1260;138943;-64
2024/04/22 06:33:52;;;;;;;6.20;3.60;;;;;;;4.06;70.72;101767.77;108795;1260;65107;-64
2024/04/22 06:36:19;;;;;;;5.60;3.40;;;;;;;4.16;70.41;101761.32;108661;1260;139265;-63
2024/04/22 06:38:45;;;;;;;5.60;3.00;;;;;;;4.28;70.21;101761.12;108786;1260;60145;-63
2024/04/22 06:41:12;;;;;;;5.40;3.20;;;;;;;4.37;69.70;101762.70;108852;1260;59794;-63
2024/04/22 06:43:38;;;;;;;7.00;3.20;;;;;;;4.42;69.22;101760.42;108689;1260;137847;-63
2024/04/22 06:46:05;;;;;;;7.30;3.60;;;;;;;4.50;69.21;101754.88;108791;1260;66344;-63
2024/04/22 06:48:31;;;;;;;4.30;2.90;;;;;;;4.70;69.25;101756.33;108693;1260;138900;-63
2024/04/22 06:51:00;;;;;;;5.30;3.30;;;;;;;4.86;68.71;101749.39;108798;1260;60578;-63
2024/04/22 06:53:27;;;;;;;5.10;2.30;;;;;;;5.04;68.22;101751.91;108882;1259;59998;-63
2024/04/22 06:55:54;;;;;;;4.40;3.00;;;;;;;5.09;67.07;101752.40;108685;1260;137648;-63
2024/04/22 06:58:20;;;;;;;5.00;3.00;;;;;;;5.14;66.99;101757.09;108821;1260;67114;-63
2024/04/22 07:00:47;;;;;;;6.60;3.00;;;;;;;5.24;66.26;101753.02;108684;1260;137853;-63
2024/04/22 07:03:13;;;;;;;6.50;3.10;;;;;;;5.33;66.09;101754.06;108764;1260;59847;-63
2024/04/22 07:05:40;;;;;;;6.00;3.80;;;;;;;5.49;65.97;101751.39;108722;1260;138751;-63
2024/04/22 07:08:07;;;;;;;5.70;2.90;;;;;;;5.66;65.38;101746.85;108754;1260;73627;-63
2024/04/22 07:10:33;;;;;;;3.80;2.30;;;;;;;5.77;65.28;101749.79;108800;1260;66417;-63
2024/04/22 07:13:00;;;;;;;4.20;1.90;;;;;;;5.96;64.94;101750.24;108676;1260;137862;-63
2024/04/22 07:15:27;;;;;;;3.40;2.10;;;;;;;6.12;64.18;101748.59;108773;1260;60018;-63
2024/04/22 07:17:53;;;;;;;4.20;2.30;;;;;;;6.21;63.08;101755.21;108699;1260;138078;-63
2024/04/22 07:20:19;;;;;;;6.10;2.80;;;;;;;6.23;62.42;101758.83;108867;1260;60053;-63
2024/04/22 07:22:46;;;;;;;7.40;3.00;;;;;;;6.20;62.05;101750.64;108855;1260;59898;-65
2024/04/22 07:25:12;;;;;;;3.30;2.50;;;;;;;6.16;61.48;101750.58;108685;1260;137948;-64
2024/04/22 07:27:39;;;;;;;7.20;2.80;;;;;;;6.20;61.91;101749.23;108817;1260;59994;-64
2024/04/22 07:30:07;;;;;;;5.10;2.40;;;;;;;6.31;61.24;101751.49;108603;1260;138450;-63
2024/04/22 07:32:33;;;;;;;3.90;1.90;;;;;;;6.31;60.58;101750.95;108830;1260;76654;-64
2024/04/22 07:35:00;;;;;;;4.10;2.10;;;;;;;6.25;60.69;101744.84;108777;1260;66146;-63
2024/04/22 07:37:30;;;;;;;3.60;2.10;;;;;;;6.26;60.67;101744.20;108678;1260;137996;-64
2024/04/22 07:40:09;;;;;;;3.50;2.40;;;;;;;6.27;61.09;101741.48;108796;1260;59680;-64
2024/04/22 07:42:35;;;;;;;4.70;2.20;;;;;;;6.40;61.29;101738.89;108569;1260;138287;-64
2024/04/22 07:45:02;;;;;;;5.80;2.30;;;;;;;6.45;61.08;101729.97;108800;1260;74820;-62
2024/04/22 07:47:28;;;;;;;5.10;2.20;;;;;;;6.53;61.04;101729.14;108871;1260;65524;-63
2024/04/22 07:49:55;;;;;;;3.10;1.60;;;;;;;6.52;60.69;101730.68;108661;1260;137819;-62
2024/04/22 07:52:21;;;;;;;2.90;2.00;;;;;;;6.47;60.05;101728.14;108761;1260;59802;-63
2024/04/22 07:54:48;;;;;;;4.10;2.60;;;;;;;6.37;59.90;101732.27;108723;1260;138325;-63
2024/04/22 07:57:15;;;;;;;3.00;1.80;;;;;;;6.39;59.59;101730.33;108762;1260;74173;-64
2024/04/22 07:59:42;;;;;;;4.00;1.70;;;;;;;6.26;57.74;101733.40;108598;1266;138102;-64
2024/04/22 08:02:09;;;;;;;3.40;1.80;;;;;;;6.17;58.19;101725.52;108830;1260;72835;-64
2024/04/22 08:04:36;;;;;;;4.20;1.70;;;;;;;6.30;57.64;101727.52;108797;1260;59781;-63
2024/04/22 08:07:03;;;;;;;3.50;2.00;;;;;;;6.43;57.75;101724.75;108684;1260;137903;-63
2024/04/22 08:09:30;;;;;;;3.70;2.60;;;;;;;6.68;57.93;101717.84;108803;1260;74705;-64
2024/04/22 08:11:57;;;;;;;3.30;1.80;;;;;;;7.02;57.60;101709.55;108596;1260;138122;-64
2024/04/22 08:14:24;;;;;;;2.50;2.00;;;;;;;7.20;56.94;101716.52;108736;1262;74176;-64
2024/04/22 08:16:50;;;;;;;8.70;7.00;;;;;;;7.27;56.32;101711.80;108784;1260;60024;-64
2024/04/22 08:19:17;;;;;;;3.00;1.70;;;;;;;7.40;56.07;101713.17;108688;1260;138788;-64
2024/04/22 08:21:44;;;;;;;2.70;1.90;;;;;;;7.54;55.21;101712.90;108788;1260;75230;-65
2024/04/22 08:24:11;;;;;;;15.00;11.40;;;;;;;7.66;55.02;101710.55;108664;1260;138852;-64
2024/04/22 08:26:38;;;;;;;11.30;7.80;;;;;;;7.82;55.01;101700.86;108818;1260;72745;-64
2024/04/22 08:29:04;;;;;;;16.40;13.00;;;;;;;8.07;55.20;101703.19;108783;1260;59956;-64
2024/04/22 08:31:32;;;;;;;14.00;9.30;;;;;;;8.31;54.87;101703.00;108690;1264;138717;-64
2024/04/22 08:33:58;;;;;;;6.30;4.80;;;;;;;8.40;54.11;101692.61;108808;1260;74814;-64
2024/04/22 08:36:25;;;;;;;7.90;5.90;;;;;;;8.37;52.64;101698.91;108677;1260;138347;-64
2024/04/22 08:38:51;;;;;;;7.70;5.70;;;;;;;8.18;52.73;101694.64;108817;1260;72422;-64
2024/04/22 08:41:18;;;;;;;12.90;6.80;;;;;;;8.34;53.51;101695.42;108820;1262;59850;-64
2024/04/22 08:43:45;;;;;;;5.20;4.20;;;;;;;8.64;53.45;101699.92;108685;1260;138181;-64
2024/04/22 08:46:12;;;;;;;5.40;3.50;;;;;;;8.57;51.73;101701.83;108802;1260;75464;-65
2024/04/22 08:48:38;;;;;;;4.30;3.20;;;;;;;8.49;52.73;101702.34;108600;1260;138516;-64
2024/04/22 08:51:06;;;;;;;4.00;3.40;;;;;;;8.62;52.81;101705.58;108793;1260;71418;-64
2024/04/22 08:53:33;;;;;;;3.60;2.60;;;;;;;8.56;51.27;101713.67;108833;1260;59805;-64
2024/04/22 08:55:59;;;;;;;4.90;3.00;;;;;;;8.34;51.67;101712.25;108788;1265;59969;-64
2024/04/22 08:58:26;;;;;;;7.10;3.90;;;;;;;8.11;51.42;101713.00;108790;1260;74265;-64
2024/04/22 09:00:52;;;;;;;4.00;3.20;;;;;;;7.92;51.68;101715.04;108688;1260;138444;-64
2024/04/22 09:03:19;;;;;;;4.60;3.80;;;;;;;7.67;51.22;101723.52;108730;1260;71977;-64
2024/04/22 09:05:46;;;;;;;4.60;2.60;;;;;;;7.34;50.80;101728.09;108702;1261;138339;-64
2024/04/22 09:08:14;;;;;;;3.40;1.90;;;;;;;7.03;51.21;101738.96;108795;1260;59796;-64
2024/04/22 09:10:41;;;;;;;4.50;1.90;;;;;;;6.75;51.24;101735.98;108771;1260;75712;-64
2024/04/22 09:13:07;;;;;;;2.00;1.80;;;;;;;6.56;51.53;101743.48;108646;1260;138110;-64
2024/04/22 09:15:34;;;;;;;6.60;3.30;;;;;;;6.27;51.68;101741.44;108788;1260;72098;-64
2024/04/22 09:18:00;;;;;;;5.30;3.20;;;;;;;6.08;52.35;101744.51;108618;1260;138474;-64
2024/04/22 09:20:33;;;;;;;5.90;2.50;;;;;;;5.98;52.65;101747.95;108833;1260;61522;-64
2024/04/22 09:23:00;;;;;;;3.60;2.70;;;;;;;5.87;52.92;101744.63;108799;1260;74741;-64
2024/04/22 09:25:26;;;;;;;2.80;2.00;;;;;;;5.84;53.35;101745.86;108678;1260;137761;-64
2024/04/22 09:27:54;;;;;;;5.60;3.40;;;;;;;5.91;53.70;101744.71;108768;1261;72141;-64
2024/04/22 09:30:24;;;;;;;3.60;2.20;;;;;;;5.96;53.90;101751.53;108612;1260;137979;-64
2024/04/22 09:32:53;;;;;;;5.30;2.20;;;;;;;5.92;53.78;101747.21;108753;1260;60396;-63
2024/04/22 09:35:20;;;;;;;7.90;2.60;;;;;;;5.96;53.87;101748.86;108678;1260;75154;-63
2024/04/22 09:37:48;;;;;;;4.90;2.90;;;;;;;6.09;53.98;101745.83;108679;1260;138091;-62
2024/04/22 09:40:15;;;;;;;3.50;2.00;;;;;;;6.32;54.08;101742.79;108761;1265;73132;-62
2024/04/22 09:42:43;;;;;;;2.90;2.30;;;;;;;6.66;54.28;101737.40;108703;1261;138336;-62
2024/04/22 09:45:10;;;;;;;6.00;2.80;;;;;;;7.05;54.38;101738.86;108800;1260;60887;-62
2024/04/22 09:47:38;;;;;;;9.50;3.00;;;;;;;7.31;53.27;101736.77;108638;1260;138466;-64
2024/04/22 09:50:05;;;;;;;3.50;2.50;;;;;;;7.23;52.80;101733.58;108819;1261;66450;-63
2024/04/22 09:52:32;;;;;;;3.30;2.80;;;;;;;7.20;53.33;101726.25;108605;1263;72773;-63
2024/04/22 09:55:00;;;;;;;4.50;2.50;;;;;;;7.17;53.40;101723.14;108694;1260;138038;-63
2024/04/22 09:57:29;;;;;;;3.10;2.80;;;;;;;7.06;53.12;101726.05;108819;1260;60379;-63
2024/04/22 09:59:55;;;;;;;3.30;2.40;;;;;;;6.79;53.11;101732.58;108760;1260;138187;-63
2024/04/22 10:02:22;;;;;;;3.60;2.60;;;;;;;6.50;53.39;101728.69;108724;1263;67915;-63
2024/04/22 10:04:48;;;;;;;5.40;2.80;;;;;;;6.26;53.63;101734.64;108694;1264;72380;-64
2024/04/22 10:07:15;;;;;;;5.20;3.20;;;;;;;6.09;53.98;101732.56;108588;1261;138048;-64
2024/04/22 10:09:56;;;;;;;7.20;3.80;;;;;;;5.98;54.38;101732.61;108815;1260;60006;-63
2024/04/22 10:12:27;;;;;;;5.40;3.30;;;;;;;5.86;54.76;101724.92;108700;1260;138015;-63
2024/04/22 10:15:10;;;;;;;5.70;3.70;;;;;;;5.84;54.91;101730.52;108826;1260;64507;-63
2024/04/22 10:17:37;;;;;;;4.40;3.00;;;;;;;5.83;55.29;101727.19;108562;1261;138540;-62
2024/04/22 10:20:08;;;;;;;6.80;3.20;;;;;;;5.88;55.55;101728.00;108691;1265;59779;-63
2024/04/22 10:22:36;;;;;;;7.30;4.40;;;;;;;5.99;55.76;101728.19;108777;1261;60768;-63
2024/04/22 10:25:05;;;;;;;6.50;3.70;;;;;;;6.24;56.02;101725.58;108598;1260;138209;-64
2024/04/22 10:27:32;;;;;;;5.00;3.70;;;;;;;6.50;56.14;101728.11;108718;1266;66430;-64
2024/04/22 10:29:58;;;;;;;6.10;3.70;;;;;;;6.63;55.96;101730.62;108728;1260;138213;-64
2024/04/22 10:32:25;;;;;;;6.50;3.50;;;;;;;6.74;56.25;101725.82;108775;1260;60122;-65
2024/04/22 10:34:53;;;;;;;5.50;4.00;;;;;;;6.89;56.51;101727.55;108756;1263;59880;-65
2024/04/22 10:37:19;;;;;;;10.80;4.40;;;;;;;7.05;56.79;101729.48;108690;1260;137943;-65
2024/04/22 10:39:47;;;;;;;6.60;3.80;;;;;;;7.16;56.62;101732.88;108795;1260;67546;-65
2024/04/22 10:42:15;;;;;;;8.70;4.20;;;;;;;7.16;56.55;101735.48;108559;1260;138751;-65
2024/04/22 10:44:43;;;;;;;7.40;4.10;;;;;;;7.05;56.48;101737.86;108814;1261;60047;-64
2024/04/22 10:47:10;;;;;;;6.50;4.00;;;;;;;6.90;56.59;101747.14;108716;1261;60200;-64
2024/04/22 10:49:36;;;;;;;7.00;4.40;;;;;;;6.76;56.98;101748.07;108701;1261;137921;-64
2024/04/22 10:52:04;;;;;;;8.50;4.70;;;;;;;6.58;57.26;101752.15;108812;1261;66144;-64
2024/04/22 10:54:30;;;;;;;7.90;4.80;;;;;;;6.50;57.75;101749.57;108674;1260;138294;-64
2024/04/22 10:56:57;;;;;;;5.80;3.90;;;;;;;6.55;58.33;101749.35;108818;1260;59808;-64
2024/04/22 10:59:24;;;;;;;6.10;3.80;;;;;;;6.60;58.20;101747.88;108792;1260;60288;-64
2024/04/22 11:01:51;;;;;;;7.40;3.60;;;;;;;6.61;58.40;101751.11;108644;1261;137659;-64
2024/04/22 11:04:17;;;;;;;8.80;3.50;;;;;;;6.66;58.45;101756.59;108535;1264;66676;-64
2024/04/22 11:06:44;;;;;;;5.70;3.50;;;;;;;6.58;58.23;101757.89;108583;1260;138355;-64
2024/04/22 11:09:11;;;;;;;5.80;3.80;;;;;;;6.52;58.70;101755.13;108670;1263;60007;-64
2024/04/22 11:11:37;;;;;;;5.40;3.50;;;;;;;6.68;59.02;101750.45;108743;1260;138302;-64
2024/04/22 11:14:04;;;;;;;5.40;4.00;;;;;;;6.79;58.81;101752.61;108720;1260;75017;-64
2024/04/22 11:16:30;;;;;;;8.00;5.30;;;;;;;6.77;58.79;101753.21;108791;1261;65219;-64
2024/04/22 11:19:04;;;;;;;6.50;4.10;;;;;;;6.91;59.24;101756.27;108664;1261;137618;-64
2024/04/22 11:21:30;;;;;;;4.90;3.90;;;;;;;7.03;58.79;101755.88;108790;1261;59692;-64
2024/04/22 11:23:57;;;;;;;6.80;4.30;;;;;;;7.04;58.75;101759.59;108725;1260;138394;-64
2024/04/22 11:26:27;;;;;;;8.00;4.10;;;;;;;7.11;58.88;101758.95;108725;1260;74938;-64
2024/04/22 11:28:57;;;;;;;7.40;4.20;;;;;;;7.04;58.64;101762.90;108818;1260;66503;-64